Time;durP1;ratioP1;P1;durP2;ratioP2;P2;SDS_P1;SDS_P2;PMS_P1;PMS_P2;Temp;Humidity;BMP_temperature;BMP_pressure;BME280_temperature;BME280_humidity;BME280_pressure;Samples;Min_cycle;Max_cycle;Signal;HPM_P1;HPM_P2
2021/07/23 00:00:39;;;;;;;14.00;11.30;;;18.70;80.00;;;;;;6154237;23;20210;-90
2021/07/23 00:03:06;;;;;;;14.48;12.10;;;18.60;79.90;;;;;;6153413;23;20199;-89
2021/07/23 00:05:35;;;;;;;13.55;12.15;;;18.70;79.90;;;;;;6154084;23;20207;-89
2021/07/23 00:08:02;;;;;;;16.77;11.85;;;18.60;79.80;;;;;;6154527;23;20171;-89
2021/07/23 00:10:29;;;;;;;15.40;12.00;;;18.60;80.40;;;;;;6153201;23;20778;-89
2021/07/23 00:12:55;;;;;;;13.93;11.68;;;18.70;82.60;;;;;;6154549;23;20184;-89
2021/07/23 00:15:22;;;;;;;13.32;11.90;;;18.60;82.60;;;;;;6153610;23;20211;-89
2021/07/23 00:17:49;;;;;;;16.80;12.30;;;18.60;82.70;;;;;;6154679;23;20254;-89
2021/07/23 00:20:16;;;;;;;13.95;12.30;;;18.50;83.40;;;;;;6152481;23;20281;-89
2021/07/23 00:22:45;;;;;;;15.77;11.85;;;18.40;83.30;;;;;;6154153;23;20182;-89
2021/07/23 00:25:12;;;;;;;13.20;11.90;;;18.30;84.00;;;;;;6153426;23;20298;-89
2021/07/23 00:27:39;;;;;;;17.42;12.52;;;18.30;84.70;;;;;;6153938;23;20178;-90
2021/07/23 00:30:08;;;;;;;15.38;12.75;;;18.20;85.00;;;;;;6153279;23;20274;-89
2021/07/23 00:32:35;;;;;;;13.77;12.00;;;18.20;85.30;;;;;;6154876;23;20559;-89
2021/07/23 00:35:02;;;;;;;13.30;11.65;;;18.20;86.00;;;;;;6153723;23;20215;-89
2021/07/23 00:37:29;;;;;;;13.30;11.90;;;18.10;86.40;;;;;;6155096;23;20175;-89
2021/07/23 00:39:57;;;;;;;14.18;12.68;;;18.10;88.10;;;;;;6153657;23;20218;-89
2021/07/23 00:42:34;;;;;;;12.88;11.52;;;18.00;88.20;;;;;;6155020;23;20254;-88
2021/07/23 00:45:01;;;;;;;15.88;12.73;;;17.90;89.40;;;;;;6155478;23;20214;-89
2021/07/23 00:47:28;;;;;;;14.40;12.30;;;17.80;89.80;;;;;;6156991;23;20175;-88
2021/07/23 00:49:55;;;;;;;16.13;12.48;;;17.70;90.00;;;;;;6154463;23;20730;-89
2021/07/23 00:52:23;;;;;;;17.00;12.45;;;17.70;90.30;;;;;;6155637;23;20258;-89
2021/07/23 00:54:50;;;;;;;14.82;13.02;;;17.70;90.30;;;;;;6155079;23;20302;-89
2021/07/23 00:57:19;;;;;;;13.82;12.43;;;17.70;90.50;;;;;;6156236;23;20258;-89
2021/07/23 00:59:46;;;;;;;14.52;12.50;;;17.60;90.50;;;;;;6154590;23;20273;-89
2021/07/23 01:02:13;;;;;;;14.52;12.85;;;17.50;90.70;;;;;;6154452;23;20250;-89
2021/07/23 01:04:41;;;;;;;14.13;12.50;;;17.50;90.90;;;;;;6155279;23;20298;-88
2021/07/23 01:07:08;;;;;;;13.57;12.18;;;17.40;91.50;;;;;;6155912;23;20236;-88
2021/07/23 01:09:35;;;;;;;21.77;12.73;;;17.50;91.40;;;;;;6154528;23;20240;-88
2021/07/23 01:12:03;;;;;;;14.38;12.88;;;17.50;91.40;;;;;;6156045;23;20564;-88
2021/07/23 01:14:33;;;;;;;14.70;12.25;;;17.60;91.20;;;;;;6155186;23;20203;-89
2021/07/23 01:17:02;;;;;;;14.65;12.90;;;17.60;91.10;;;;;;6155572;23;20250;-88
2021/07/23 01:19:38;;;;;;;18.00;13.25;;;17.60;91.50;;;;;;6155819;23;20683;-89
2021/07/23 01:22:07;;;;;;;14.88;13.00;;;17.50;91.30;;;;;;6155135;23;20611;-89
2021/07/23 01:24:37;;;;;;;17.65;12.50;;;17.40;91.70;;;;;;6153537;23;20178;-88
2021/07/23 01:27:04;;;;;;;18.13;12.50;;;17.40;92.00;;;;;;6154158;23;20179;-89
2021/07/23 01:29:31;;;;;;;16.42;12.38;;;17.40;92.00;;;;;;6153154;23;20262;-89
2021/07/23 01:31:58;;;;;;;15.93;12.55;;;17.30;92.00;;;;;;6154130;23;20175;-89
2021/07/23 01:34:25;;;;;;;14.40;12.90;;;17.30;92.00;;;;;;6153701;23;20179;-89
2021/07/23 01:36:52;;;;;;;15.02;12.45;;;17.30;92.00;;;;;;6154566;23;20278;-89
2021/07/23 01:39:20;;;;;;;15.05;13.20;;;17.20;92.50;;;;;;6153161;23;20209;-89
2021/07/23 01:41:49;;;;;;;15.30;13.00;;;17.10;92.70;;;;;;6153506;23;20179;-89
2021/07/23 01:44:16;;;;;;;13.93;12.52;;;17.10;92.90;;;;;;6154019;23;20202;-89
2021/07/23 01:46:43;;;;;;;15.32;12.75;;;17.10;93.20;;;;;;6153915;23;20706;-88
2021/07/23 01:49:10;;;;;;;14.80;12.65;;;17.20;92.80;;;;;;6154410;23;20237;-88
2021/07/23 01:51:38;;;;;;;14.20;12.35;;;17.20;92.80;;;;;;6153889;23;20303;-89
2021/07/23 01:54:05;;;;;;;13.48;12.07;;;17.30;92.80;;;;;;6157191;23;20254;-88
2021/07/23 01:56:32;;;;;;;13.57;12.18;;;17.30;93.00;;;;;;6159071;23;20298;-88
2021/07/23 01:59:01;;;;;;;15.68;12.75;;;17.40;92.70;;;;;;6159834;23;20656;-88
2021/07/23 02:01:28;;;;;;;16.08;12.25;;;17.40;92.40;;;;;;6158520;23;20601;-88
2021/07/23 02:03:55;;;;;;;15.70;12.80;;;17.30;92.40;;;;;;6160007;23;20175;-88
2021/07/23 02:06:22;;;;;;;15.30;12.88;;;17.20;92.40;;;;;;6160710;23;20290;-88
2021/07/23 02:08:49;;;;;;;14.70;13.15;;;17.10;92.40;;;;;;6159539;23;20214;-89
2021/07/23 02:11:16;;;;;;;15.98;12.57;;;17.10;92.70;;;;;;6153175;23;20282;-89
2021/07/23 02:13:43;;;;;;;16.35;12.40;;;17.00;92.80;;;;;;6154493;23;20180;-88
2021/07/23 02:16:12;;;;;;;14.55;12.65;;;17.10;93.00;;;;;;6153972;23;20289;-89
2021/07/23 02:18:39;;;;;;;16.10;12.52;;;17.10;92.90;;;;;;6154047;23;20628;-89
2021/07/23 02:21:09;;;;;;;15.82;12.35;;;17.20;92.70;;;;;;6154055;23;20294;-88
2021/07/23 02:23:36;;;;;;;15.18;12.40;;;17.40;92.60;;;;;;6153276;23;21005;-89
2021/07/23 02:26:03;;;;;;;16.27;12.70;;;17.40;92.00;;;;;;6153835;23;20290;-90
2021/07/23 02:28:31;;;;;;;17.30;12.43;;;17.40;92.00;;;;;;6153999;23;20207;-89
2021/07/23 02:30:58;;;;;;;20.20;12.38;;;17.40;92.00;;;;;;6154176;23;20235;-88
2021/07/23 02:33:26;;;;;;;14.80;12.50;;;17.40;92.00;;;;;;6154895;23;20207;-88
2021/07/23 02:35:53;;;;;;;15.43;12.20;;;17.40;92.00;;;;;;6154458;23;20302;-89
2021/07/23 02:38:20;;;;;;;13.60;12.07;;;17.30;91.80;;;;;;6154999;23;20254;-88
2021/07/23 02:40:47;;;;;;;17.77;13.00;;;17.40;92.00;;;;;;6154008;23;20286;-88
2021/07/23 02:43:14;;;;;;;15.32;13.35;;;17.30;92.00;;;;;;6155206;23;20259;-89
2021/07/23 02:45:41;;;;;;;15.07;12.40;;;17.30;92.00;;;;;;6154628;23;20226;-89
2021/07/23 02:48:08;;;;;;;14.23;12.05;;;17.40;92.00;;;;;;6157042;23;20298;-88
2021/07/23 02:50:36;;;;;;;14.55;12.00;;;17.50;92.00;;;;;;6155800;23;20230;-88
2021/07/23 02:53:04;;;;;;;13.80;12.10;;;17.60;91.90;;;;;;6156161;23;20586;-88
2021/07/23 02:55:31;;;;;;;14.43;12.52;;;17.50;91.60;;;;;;6156425;23;20207;-89
2021/07/23 02:57:58;;;;;;;13.63;12.13;;;17.60;91.50;;;;;;6156376;23;20218;-88
2021/07/23 03:00:26;;;;;;;14.43;12.15;;;17.50;91.60;;;;;;6155462;23;20222;-89
2021/07/23 03:02:53;;;;;;;13.80;11.77;;;17.40;92.00;;;;;;6155053;23;20207;-89
2021/07/23 03:05:20;;;;;;;14.18;11.93;;;17.30;92.00;;;;;;6155461;23;20230;-89
2021/07/23 03:07:52;;;;;;;15.70;12.50;;;17.40;92.00;;;;;;6156188;23;20560;-89
2021/07/23 03:10:19;;;;;;;13.70;11.85;;;17.30;92.00;;;;;;6154995;23;20278;-89
2021/07/23 03:12:47;;;;;;;16.25;13.25;;;17.30;92.00;;;;;;6156179;23;20217;-89
2021/07/23 03:15:14;;;;;;;16.10;12.00;;;17.20;92.20;;;;;;6155387;23;20708;-89
2021/07/23 03:17:41;;;;;;;14.85;12.50;;;17.20;92.20;;;;;;6156741;23;20286;-88
2021/07/23 03:20:09;;;;;;;14.88;12.10;;;17.30;92.00;;;;;;6154751;23;20217;-89
2021/07/23 03:22:36;;;;;;;15.05;11.98;;;17.30;92.00;;;;;;6156445;23;20171;-88
2021/07/23 03:25:05;;;;;;;14.93;12.60;;;17.30;92.00;;;;;;6155804;23;20257;-89
2021/07/23 03:27:33;;;;;;;13.18;11.60;;;17.40;92.00;;;;;;6157423;23;20178;-89
2021/07/23 03:30:00;;;;;;;17.48;12.18;;;17.40;92.00;;;;;;6157267;23;20231;-89
2021/07/23 03:32:27;;;;;;;14.80;11.85;;;17.50;92.00;;;;;;6155360;23;20258;-89
2021/07/23 03:34:54;;;;;;;14.65;11.70;;;17.40;92.00;;;;;;6154618;23;20282;-89
2021/07/23 03:37:21;;;;;;;18.98;13.15;;;17.40;92.00;;;;;;6155654;23;20195;-89
2021/07/23 03:39:48;;;;;;;15.75;12.70;;;17.30;92.20;;;;;;6154218;23;20746;-89
2021/07/23 03:42:16;;;;;;;14.63;11.98;;;17.20;92.40;;;;;;6155497;23;20262;-89
2021/07/23 03:44:43;;;;;;;17.15;12.32;;;17.20;92.70;;;;;;6154334;23;20282;-89
2021/07/23 03:47:11;;;;;;;15.52;12.50;;;17.20;92.90;;;;;;6155400;23;20576;-89
2021/07/23 03:49:38;;;;;;;17.10;12.18;;;17.20;93.30;;;;;;6154160;23;20304;-89
2021/07/23 03:52:05;;;;;;;16.08;12.13;;;17.20;92.80;;;;;;6155541;23;20203;-89
2021/07/23 03:54:32;;;;;;;14.02;12.10;;;17.20;93.00;;;;;;6154143;23;20726;-88
2021/07/23 03:56:59;;;;;;;12.70;11.40;;;17.20;92.60;;;;;;6154504;23;20522;-89
2021/07/23 03:59:27;;;;;;;14.93;11.77;;;17.20;92.40;;;;;;6154107;23;20266;-89
2021/07/23 04:01:54;;;;;;;14.15;12.65;;;17.20;92.40;;;;;;6154414;23;20683;-89
2021/07/23 04:04:21;;;;;;;14.52;12.43;;;17.20;92.10;;;;;;6154791;23;20206;-88
2021/07/23 04:06:48;;;;;;;15.80;12.20;;;17.00;92.30;;;;;;6154778;23;20187;-89
2021/07/23 04:09:15;;;;;;;16.63;12.65;;;16.90;93.40;;;;;;6154838;23;20266;-89
2021/07/23 04:11:48;;;;;;;14.32;12.10;;;16.90;93.20;;;;;;6154970;23;20214;-89
2021/07/23 04:14:15;;;;;;;13.88;12.02;;;16.90;93.50;;;;;;6154833;23;20485;-89
2021/07/23 04:16:44;;;;;;;17.80;12.88;;;17.00;93.50;;;;;;6153716;23;20209;-90
2021/07/23 04:19:11;;;;;;;16.27;11.68;;;16.80;93.40;;;;;;6154829;23;20657;-89
2021/07/23 04:21:38;;;;;;;15.52;13.40;;;16.90;93.60;;;;;;6127802;23;20207;-89
2021/07/23 04:24:06;;;;;;;15.07;12.40;;;16.90;93.80;;;;;;6155266;23;20181;-89
2021/07/23 04:26:34;;;;;;;18.15;13.25;;;16.90;93.90;;;;;;6153698;23;20218;-89
2021/07/23 04:29:01;;;;;;;13.88;12.38;;;17.00;93.60;;;;;;6154512;23;20257;-89
2021/07/23 04:31:29;;;;;;;15.60;12.85;;;17.00;93.60;;;;;;6154242;23;20207;-89
2021/07/23 04:33:59;;;;;;;15.07;12.13;;;17.00;93.60;;;;;;6154585;23;20254;-88
2021/07/23 04:36:26;;;;;;;16.55;12.48;;;17.10;93.70;;;;;;6154302;23;20214;-89
2021/07/23 04:38:53;;;;;;;15.25;12.25;;;17.10;93.60;;;;;;6155582;23;20179;-89
2021/07/23 04:41:21;;;;;;;14.00;12.48;;;17.20;93.60;;;;;;6155063;23;20261;-89
2021/07/23 04:43:48;;;;;;;14.80;11.57;;;17.20;93.50;;;;;;6155681;23;20558;-89
2021/07/23 04:46:15;;;;;;;15.57;12.13;;;17.30;92.90;;;;;;6155808;23;20207;-88
2021/07/23 04:48:42;;;;;;;14.70;12.70;;;17.30;92.80;;;;;;6156298;23;20282;-88
2021/07/23 04:51:11;;;;;;;14.88;12.82;;;17.30;92.60;;;;;;6155993;23;20293;-88
2021/07/23 04:53:38;;;;;;;14.93;13.02;;;17.30;92.50;;;;;;6155637;23;20277;-87
2021/07/23 04:56:06;;;;;;;15.05;12.85;;;17.40;92.60;;;;;;6155735;23;20595;-88
2021/07/23 04:58:34;;;;;;;17.67;12.93;;;17.50;92.40;;;;;;6156278;23;20635;-88
2021/07/23 05:01:01;;;;;;;15.70;12.25;;;17.60;92.10;;;;;;6155925;23;20205;-88
2021/07/23 05:03:36;;;;;;;13.25;11.88;;;17.70;92.10;;;;;;6155454;23;20212;-89
2021/07/23 05:06:04;;;;;;;15.65;12.10;;;17.70;92.10;;;;;;6155418;23;20203;-88
2021/07/23 05:08:33;;;;;;;17.27;13.18;;;17.80;92.10;;;;;;6155967;23;20250;-88
2021/07/23 05:11:01;;;;;;;16.27;12.70;;;17.80;92.00;;;;;;6129814;23;20681;-88
2021/07/23 05:13:31;;;;;;;16.67;12.27;;;17.90;91.90;;;;;;6155801;23;20186;-90
2021/07/23 05:15:58;;;;;;;17.30;12.27;;;17.90;91.40;;;;;;6153838;23;20206;-88
2021/07/23 05:18:26;;;;;;;15.00;12.52;;;18.00;91.10;;;;;;6154652;23;20210;-88
2021/07/23 05:20:53;;;;;;;16.83;13.02;;;18.10;91.10;;;;;;6154798;23;20293;-88
2021/07/23 05:23:21;;;;;;;18.48;13.18;;;18.00;91.10;;;;;;6129924;23;20230;-88
2021/07/23 05:25:50;;;;;;;16.23;12.57;;;18.00;91.10;;;;;;6155292;23;20203;-88
2021/07/23 05:28:17;;;;;;;21.27;13.45;;;18.00;91.30;;;;;;6155460;23;20175;-90
2021/07/23 05:30:44;;;;;;;20.92;13.32;;;18.00;90.90;;;;;;6153056;23;20305;-88
2021/07/23 05:33:11;;;;;;;14.85;12.20;;;18.10;90.70;;;;;;6126235;23;20175;-89
2021/07/23 05:35:38;;;;;;;18.73;13.45;;;18.20;90.70;;;;;;6153104;23;20209;-89
2021/07/23 05:38:05;;;;;;;16.23;13.40;;;18.20;90.30;;;;;;6149748;23;20195;-88
2021/07/23 05:40:32;;;;;;;17.25;13.07;;;18.30;89.80;;;;;;6151412;23;20265;-89
2021/07/23 05:43:02;;;;;;;14.77;13.07;;;18.40;90.00;;;;;;6152021;23;20250;-88
2021/07/23 05:45:29;;;;;;;19.08;13.73;;;18.40;89.40;;;;;;6150950;23;20298;-88
2021/07/23 05:47:56;;;;;;;18.13;13.18;;;18.50;87.80;;;;;;6127007;23;20539;-88
2021/07/23 05:50:23;;;;;;;18.27;12.93;;;18.70;87.30;;;;;;6152305;23;20285;-88
2021/07/23 05:52:50;;;;;;;16.30;12.73;;;18.70;86.70;;;;;;6153651;23;20175;-88
2021/07/23 05:55:17;;;;;;;15.18;12.38;;;18.80;87.00;;;;;;6152309;23;20278;-88
2021/07/23 05:57:44;;;;;;;15.80;13.57;;;18.90;86.90;;;;;;6153612;23;20203;-88
2021/07/23 06:00:14;;;;;;;19.00;13.60;;;19.20;84.80;;;;;;6152216;23;20726;-87
2021/07/23 06:02:41;;;;;;;14.23;12.18;;;19.40;81.60;;;;;;6152186;23;20173;-88
2021/07/23 06:05:09;;;;;;;16.88;12.63;;;19.60;80.50;;;;;;6152685;23;20306;-88
2021/07/23 06:07:38;;;;;;;16.67;12.82;;;19.60;80.60;;;;;;6156018;23;20254;-88
2021/07/23 06:10:06;;;;;;;15.13;12.85;;;19.70;80.60;;;;;;6153867;23;20658;-89
2021/07/23 06:12:34;;;;;;;19.17;13.55;;;19.60;80.60;;;;;;6155632;23;20690;-87
2021/07/23 06:15:01;;;;;;;16.20;13.90;;;19.60;80.50;;;;;;6154053;23;20271;-88
2021/07/23 06:17:29;;;;;;;15.55;12.77;;;19.60;80.50;;;;;;6152282;23;20277;-89
2021/07/23 06:19:56;;;;;;;16.20;12.88;;;19.60;80.50;;;;;;6152205;23;20207;-87
2021/07/23 06:22:23;;;;;;;18.27;13.45;;;19.60;81.30;;;;;;6154481;23;20266;-88
2021/07/23 06:24:53;;;;;;;14.27;12.32;;;19.70;80.80;;;;;;6154762;23;20285;-88
2021/07/23 06:27:21;;;;;;;19.75;13.40;;;19.80;80.70;;;;;;6155964;23;20168;-88
2021/07/23 06:29:49;;;;;;;15.25;12.02;;;19.90;80.80;;;;;;6157048;23;20289;-88
2021/07/23 06:32:16;;;;;;;19.65;14.38;;;19.90;80.80;;;;;;6157800;23;20171;-88
2021/07/23 06:34:45;;;;;;;18.98;13.50;;;20.10;79.30;;;;;;6157750;23;20207;-88
2021/07/23 06:37:12;;;;;;;18.45;12.73;;;20.30;78.70;;;;;;6157988;23;21023;-86
2021/07/23 06:39:39;;;;;;;17.83;11.98;;;20.30;77.50;;;;;;6158448;23;20230;-85
2021/07/23 06:42:07;;;;;;;21.63;13.38;;;20.50;78.00;;;;;;6161595;23;20218;-88
2021/07/23 06:44:37;;;;;;;17.23;13.00;;;20.60;77.20;;;;;;6158288;23;20636;-85
2021/07/23 06:47:04;;;;;;;16.25;12.85;;;20.80;76.30;;;;;;6158361;23;20167;-84
2021/07/23 06:49:31;;;;;;;18.73;13.50;;;21.00;73.80;;;;;;6160251;23;20205;-84
2021/07/23 06:52:00;;;;;;;16.98;13.85;;;21.00;71.10;;;;;;6160188;23;20179;-84
2021/07/23 06:54:27;;;;;;;16.55;13.65;;;21.10;72.60;;;;;;6163647;23;20206;-86
2021/07/23 06:56:55;;;;;;;15.23;13.10;;;21.20;70.40;;;;;;6162486;23;20286;-87
2021/07/23 06:59:22;;;;;;;16.75;13.00;;;21.30;69.50;;;;;;6161158;23;20194;-87
2021/07/23 07:01:50;;;;;;;18.77;13.88;;;21.40;68.70;;;;;;6160548;23;20731;-86
2021/07/23 07:04:17;;;;;;;17.63;13.45;;;21.40;70.60;;;;;;6158826;23;20642;-85
2021/07/23 07:06:44;;;;;;;15.63;13.38;;;21.40;69.60;;;;;;6157557;23;20270;-86
2021/07/23 07:09:12;;;;;;;14.40;12.65;;;21.50;66.90;;;;;;6156433;23;20635;-86
2021/07/23 07:11:39;;;;;;;16.15;13.07;;;21.70;68.40;;;;;;6157372;23;20199;-86
2021/07/23 07:14:06;;;;;;;20.45;14.00;;;21.80;69.10;;;;;;6158276;23;20175;-85
2021/07/23 07:16:33;;;;;;;14.75;13.25;;;21.80;64.70;;;;;;6158754;23;20262;-86
2021/07/23 07:19:01;;;;;;;16.65;13.73;;;21.80;65.60;;;;;;6157880;23;20278;-85
2021/07/23 07:21:28;;;;;;;18.70;13.30;;;21.80;67.10;;;;;;6157155;23;20274;-85
2021/07/23 07:23:55;;;;;;;16.85;13.18;;;21.90;67.00;;;;;;6157917;23;20167;-85
2021/07/23 07:26:24;;;;;;;16.42;13.45;;;21.90;64.70;;;;;;6157086;23;20965;-86
2021/07/23 07:28:53;;;;;;;16.45;13.25;;;22.10;63.50;;;;;;6157038;23;20258;-86
2021/07/23 07:31:20;;;;;;;16.90;13.85;;;22.20;64.30;;;;;;6156705;23;20210;-86
2021/07/23 07:33:47;;;;;;;19.48;13.88;;;22.10;57.80;;;;;;6156811;23;20218;-85
2021/07/23 07:36:17;;;;;;;19.83;14.15;;;21.80;63.00;;;;;;6156660;23;20203;-85
2021/07/23 07:38:44;;;;;;;16.05;13.00;;;21.90;60.30;;;;;;6157130;23;20267;-85
2021/07/23 07:41:11;;;;;;;15.35;13.43;;;21.90;62.60;;;;;;6157295;23;20222;-85
2021/07/23 07:43:39;;;;;;;15.30;13.40;;;22.10;62.60;;;;;;6159322;23;20214;-85
2021/07/23 07:46:06;;;;;;;18.08;14.00;;;22.20;59.90;;;;;;6159955;23;20206;-85
2021/07/23 07:48:33;;;;;;;14.75;13.00;;;22.20;64.60;;;;;;6160910;23;20274;-85
2021/07/23 07:51:03;;;;;;;15.63;13.20;;;22.30;60.00;;;;;;6160293;23;20584;-85
2021/07/23 07:53:31;;;;;;;14.50;12.00;;;22.50;59.60;;;;;;6158575;23;20202;-86
2021/07/23 07:55:58;;;;;;;16.00;12.90;;;22.60;59.70;;;;;;6157559;23;20231;-85
2021/07/23 07:58:24;;;;;;;16.58;13.32;;;22.60;58.30;;;;;;6157688;23;20241;-87
2021/07/23 08:00:53;;;;;;;14.45;12.90;;;22.60;55.80;;;;;;6156625;23;20853;-88
2021/07/23 08:03:20;;;;;;;18.60;13.00;;;22.70;56.70;;;;;;6159118;23;20172;-87
2021/07/23 08:05:47;;;;;;;13.52;12.10;;;22.80;56.40;;;;;;6156932;23;20258;-86
2021/07/23 08:08:14;;;;;;;14.27;12.00;;;23.00;56.40;;;;;;6158114;23;20222;-86
2021/07/23 08:10:45;;;;;;;14.15;12.65;;;23.20;54.40;;;;;;6158482;23;20274;-85
2021/07/23 08:13:12;;;;;;;16.48;12.73;;;23.40;54.40;;;;;;6159052;23;20228;-84
2021/07/23 08:15:43;;;;;;;14.50;11.98;;;23.30;52.80;;;;;;6159316;23;20226;-85
2021/07/23 08:18:13;;;;;;;14.00;12.38;;;23.30;52.90;;;;;;6160375;23;20191;-84
2021/07/23 08:20:41;;;;;;;14.25;12.57;;;23.60;52.30;;;;;;6159209;23;20253;-84
2021/07/23 08:23:09;;;;;;;14.18;12.68;;;23.80;51.00;;;;;;6157550;23;20242;-84
2021/07/23 08:25:36;;;;;;;15.68;12.00;;;23.70;50.10;;;;;;6157369;23;20230;-85
2021/07/23 08:28:03;;;;;;;16.50;12.73;;;23.90;50.90;;;;;;6158560;23;20262;-84
2021/07/23 08:30:30;;;;;;;14.15;12.63;;;24.30;48.10;;;;;;6156900;23;20231;-83
2021/07/23 08:32:57;;;;;;;14.15;12.48;;;24.70;43.80;;;;;;6158071;23;20199;-82
2021/07/23 08:35:25;;;;;;;15.77;12.60;;;25.00;45.30;;;;;;6157470;23;20213;-84
2021/07/23 08:37:53;;;;;;;15.52;13.00;;;25.10;42.70;;;;;;6159621;23;20235;-82
2021/07/23 08:40:20;;;;;;;14.68;12.40;;;25.10;43.20;;;;;;6157478;23;20195;-83
2021/07/23 08:42:47;;;;;;;14.88;12.50;;;25.30;42.90;;;;;;6158221;23;20185;-80
2021/07/23 08:45:14;;;;;;;13.98;11.60;;;25.40;42.20;;;;;;6158701;23;20289;-83
2021/07/23 08:47:41;;;;;;;12.10;10.88;;;25.80;40.30;;;;;;6159717;23;20222;-83
2021/07/23 08:50:09;;;;;;;14.32;11.38;;;26.70;37.30;;;;;;6157487;23;20729;-83
2021/07/23 08:52:54;;;;;;;11.88;10.77;;;28.10;33.30;;;;;;6156725;23;20496;-84
2021/07/23 08:55:22;;;;;;;12.93;11.57;;;30.70;28.10;;;;;;6155188;23;20198;-84
2021/07/23 08:57:50;;;;;;;15.98;11.98;;;32.80;21.80;;;;;;6154514;23;20206;-84
2021/07/23 09:00:18;;;;;;;13.48;12.07;;;34.20;18.70;;;;;;6154417;23;20274;-84
2021/07/23 09:02:56;;;;;;;15.15;12.18;;;34.40;18.80;;;;;;6157276;23;20186;-85
2021/07/23 09:05:25;;;;;;;14.20;12.77;;;35.70;17.60;;;;;;6156753;23;20201;-85
2021/07/23 09:07:53;;;;;;;13.98;12.57;;;35.50;16.10;;;;;;6159373;23;20505;-84
2021/07/23 09:10:25;;;;;;;14.07;12.68;;;35.10;15.70;;;;;;6158448;23;20201;-84
2021/07/23 09:12:55;;;;;;;14.70;13.10;;;35.00;15.50;;;;;;6159315;23;20257;-84
2021/07/23 09:15:24;;;;;;;14.45;12.95;;;34.70;16.40;;;;;;6160459;23;20562;-84
2021/07/23 09:17:57;;;;;;;14.98;13.48;;;34.60;16.90;;;;;;6162132;23;20226;-85
2021/07/23 09:20:30;;;;;;;14.23;12.98;;;35.20;15.10;;;;;;6161750;23;20194;-84
2021/07/23 09:22:59;;;;;;;13.50;12.10;;;35.40;15.70;;;;;;6161622;23;20250;-85
2021/07/23 09:25:41;;;;;;;14.75;13.32;;;36.80;15.70;;;;;;6161366;23;20258;-85
2021/07/23 09:28:31;;;;;;;14.40;13.20;;;37.50;12.50;;;;;;6162165;23;20178;-85
2021/07/23 09:30:59;;;;;;;15.15;13.85;;;36.30;13.00;;;;;;6161285;23;20254;-85
2021/07/23 09:33:28;;;;;;;14.98;13.48;;;37.40;13.40;;;;;;6163032;23;20277;-85
2021/07/23 09:35:56;;;;;;;14.85;13.55;;;38.30;12.40;;;;;;6162902;23;20719;-84
2021/07/23 09:38:25;;;;;;;15.20;13.75;;;38.60;11.60;;;;;;6162450;23;20250;-84
2021/07/23 09:40:53;;;;;;;15.38;13.98;;;38.80;11.30;;;;;;6161038;23;20198;-85
2021/07/23 09:43:33;;;;;;;15.30;13.93;;;39.10;10.90;;;;;;6159496;23;20246;-86
2021/07/23 09:46:26;;;;;;;15.05;13.75;;;38.90;10.50;;;;;;6160292;23;20225;-85
2021/07/23 09:48:54;;;;;;;16.52;15.02;;;37.80;11.30;;;;;;6159572;23;20222;-85
2021/07/23 09:51:24;;;;;;;15.38;13.95;;;38.50;11.20;;;;;;6161007;23;20226;-84
2021/07/23 09:53:53;;;;;;;13.63;12.45;;;36.10;12.60;;;;;;6161186;23;20183;-84
2021/07/23 09:56:22;;;;;;;15.13;13.73;;;36.00;14.00;;;;;;6161078;23;20226;-85
2021/07/23 09:58:56;;;;;;;15.10;13.70;;;37.30;14.10;;;;;;6162540;23;20226;-88
2021/07/23 10:01:30;;;;;;;13.73;12.63;;;38.20;11.10;;;;;;6162803;23;20218;-84
2021/07/23 10:04:00;;;;;;;14.10;12.93;;;36.80;14.60;;;;;;6162721;23;20193;-85
2021/07/23 10:06:34;;;;;;;14.60;13.30;;;36.90;13.80;;;;;;6162613;23;20233;-85
2021/07/23 10:09:07;;;;;;;15.23;13.82;;;37.70;12.00;;;;;;6162014;23;20237;-84
2021/07/23 10:11:34;;;;;;;15.40;13.90;;;37.40;11.90;;;;;;6161355;23;20205;-84
2021/07/23 10:14:03;;;;;;;14.30;13.00;;;34.60;14.70;;;;;;6160431;23;20181;-84
2021/07/23 10:16:32;;;;;;;14.63;13.23;;;33.20;18.20;;;;;;6157244;23;20241;-87
2021/07/23 10:19:01;;;;;;;13.80;12.50;;;32.90;18.00;;;;;;6155403;23;20190;-85
2021/07/23 10:21:28;;;;;;;14.00;12.60;;;32.40;20.30;;;;;;6155422;23;20201;-88
2021/07/23 10:23:56;;;;;;;14.13;12.82;;;31.70;21.90;;;;;;6129314;23;20634;-86
2021/07/23 10:26:29;;;;;;;13.75;12.48;;;30.60;23.80;;;;;;6155215;23;20602;-83
2021/07/23 10:29:01;;;;;;;13.30;11.85;;;29.80;24.20;;;;;;6155583;23;20817;-84
2021/07/23 10:31:45;;;;;;;13.98;12.65;;;29.30;27.20;;;;;;6158106;23;20202;-87
2021/07/23 10:34:32;;;;;;;13.45;12.07;;;28.60;26.80;;;;;;6157176;23;20174;-88
2021/07/23 10:37:00;;;;;;;13.77;12.32;;;29.40;26.70;;;;;;6131986;23;20183;-85
2021/07/23 10:39:27;;;;;;;15.07;11.85;;;31.00;22.90;;;;;;6155484;23;20198;-85
2021/07/23 10:42:31;;;;;;;15.55;12.68;;;32.10;19.70;;;;;;6155965;23;20628;-86
2021/07/23 10:45:00;;;;;;;14.13;12.82;;;31.20;20.00;;;;;;6123697;23;20205;-85
2021/07/23 10:47:40;;;;;;;14.00;12.60;;;32.30;21.30;;;;;;6158290;23;20185;-86
2021/07/23 10:50:13;;;;;;;13.95;12.65;;;33.30;19.70;;;;;;6154935;23;20262;-86
2021/07/23 10:52:40;;;;;;;14.30;13.00;;;33.10;18.20;;;;;;6156407;23;20166;-87
2021/07/23 10:55:19;;;;;;;14.38;13.07;;;32.90;18.00;;;;;;6151705;23;20209;-88
2021/07/23 10:58:01;;;;;;;16.15;13.05;;;33.00;18.10;;;;;;6154492;23;20246;-85
2021/07/23 11:00:50;;;;;;;15.27;12.38;;;32.90;18.10;;;;;;6150789;23;20234;-88
2021/07/23 11:03:58;;;;;;;13.05;11.70;;;33.10;18.20;;;;;;6156732;23;20533;-87
2021/07/23 11:06:29;;;;;;;15.45;12.70;;;32.30;18.50;;;;;;6128054;23;20206;-87
2021/07/23 11:09:02;;;;;;;14.65;12.18;;;31.30;22.10;;;;;;6154367;23;20402;-86
2021/07/23 11:11:29;;;;;;;13.15;11.85;;;30.30;21.30;;;;;;6155876;23;20202;-87
2021/07/23 11:13:56;;;;;;;14.02;12.63;;;30.10;21.90;;;;;;6157348;23;20455;-87
2021/07/23 11:16:27;;;;;;;13.18;11.88;;;30.20;22.60;;;;;;6157678;23;20202;-85
2021/07/23 11:18:56;;;;;;;16.08;12.40;;;30.40;22.60;;;;;;6157704;23;20194;-86
2021/07/23 11:21:24;;;;;;;13.13;11.50;;;30.00;23.10;;;;;;6155031;23;20561;-86
2021/07/23 11:23:52;;;;;;;12.45;11.15;;;29.80;25.10;;;;;;6155901;23;20262;-87
2021/07/23 11:26:24;;;;;;;16.30;12.23;;;30.30;24.00;;;;;;6157128;23;20230;-86
2021/07/23 11:28:53;;;;;;;15.50;12.18;;;30.60;24.00;;;;;;6157239;23;20167;-86
2021/07/23 11:31:42;;;;;;;18.65;11.68;;;30.60;22.70;;;;;;6155461;23;20253;-86
2021/07/23 11:34:23;;;;;;;12.90;11.55;;;30.00;23.40;;;;;;6158058;23;20186;-86
2021/07/23 11:36:51;;;;;;;13.38;11.80;;;30.40;21.40;;;;;;6159429;23;20229;-85
2021/07/23 11:39:23;;;;;;;13.13;11.82;;;30.20;26.10;;;;;;6160646;23;20566;-86
2021/07/23 11:42:01;;;;;;;12.30;11.05;;;30.50;26.90;;;;;;6158371;23;20183;-86
2021/07/23 11:44:29;;;;;;;13.30;11.80;;;30.90;22.00;;;;;;6156951;23;20487;-85
2021/07/23 11:46:57;;;;;;;12.13;10.93;;;31.10;24.50;;;;;;6155601;23;20241;-84
2021/07/23 11:49:30;;;;;;;13.07;11.73;;;31.00;23.50;;;;;;6154459;23;20198;-84
2021/07/23 11:51:59;;;;;;;13.13;11.07;;;31.00;23.60;;;;;;6155302;23;20699;-85
2021/07/23 11:54:27;;;;;;;12.52;11.15;;;30.90;21.20;;;;;;6154802;23;20241;-85
2021/07/23 11:57:00;;;;;;;13.95;10.98;;;30.40;22.90;;;;;;6156070;23;20209;-83
2021/07/23 11:59:27;;;;;;;11.43;10.23;;;30.20;22.50;;;;;;6154798;23;20190;-84
2021/07/23 12:01:54;;;;;;;11.95;10.70;;;30.10;23.00;;;;;;6157313;23;20261;-86
2021/07/23 12:04:30;;;;;;;13.07;10.98;;;30.30;24.10;;;;;;6156324;23;20273;-84
2021/07/23 12:06:57;;;;;;;12.40;11.10;;;30.30;22.90;;;;;;6156433;23;20159;-84
2021/07/23 12:09:26;;;;;;;12.18;10.80;;;30.10;21.60;;;;;;6157417;23;20326;-83
2021/07/23 12:11:55;;;;;;;14.07;11.23;;;29.70;23.10;;;;;;6159181;23;20185;-83
2021/07/23 12:14:25;;;;;;;14.30;11.77;;;29.50;25.10;;;;;;6157869;23;20254;-83
2021/07/23 12:16:54;;;;;;;13.10;11.40;;;29.00;24.30;;;;;;6158951;23;20175;-83
2021/07/23 12:19:22;;;;;;;14.02;11.63;;;28.60;25.70;;;;;;6158926;23;20229;-83
2021/07/23 12:21:49;;;;;;;11.82;10.68;;;28.40;26.20;;;;;;6156304;23;20303;-85
2021/07/23 12:24:17;;;;;;;13.07;11.60;;;28.70;25.80;;;;;;6160692;23;20619;-83
2021/07/23 12:26:44;;;;;;;13.05;11.45;;;28.70;26.40;;;;;;6160454;23;20282;-83
2021/07/23 12:29:13;;;;;;;12.93;10.75;;;28.60;25.60;;;;;;6160066;23;20178;-82
2021/07/23 12:31:40;;;;;;;13.30;11.93;;;28.60;26.00;;;;;;6159713;23;20202;-82
2021/07/23 12:34:10;;;;;;;12.73;11.38;;;28.70;25.50;;;;;;6156049;23;20181;-83
2021/07/23 12:36:42;;;;;;;13.00;11.13;;;28.40;24.70;;;;;;6154921;23;20289;-83